Baruun-Urt, Mongolia
Current Conditions -  °F | °C
As of 10:30 PM on Wednesday 22 Oct 2014 (Local Time) from ZMUB Reporting Station
Clear Clear  
Wind Chill: 28°   Ceiling: Unl
Heat Index: 28°   Visibility: 6mi
Dew Point: 18°   Wind: 2mph
Humidity: 64%   Direction: NA
Pressure: 29.91"   Gusts: NA
Location:  46.68°N, 113.28°E
Report Text: ZMUB 221430Z VRB01MPS CAVOK M02/M08 Q1013 NOSIG RMK QFE652.6 64
Loading
Personal Weather Stations






























Interactive Weather Map
Tropical Storm Tracking
New forecast layout! Learn more

10-Day Weather Forecast

Advertisements
Track Severe Weather on mobile